TimePST,TemperatureF,Dew PointF,Humidity,Sea Level PressureIn,VisibilityMPH,Wind Direction,Wind SpeedMPH,Gust SpeedMPH,PrecipitationIn,Events,Conditions,WindDirDegrees,DateUTC
12:00 AM,35.6,33.8,93,30.30,0.2,Calm,Calm,-,N/A,Fog,Fog,0,2013-01-08 08:00:00
12:53 AM,36.0,35.1,97,30.38,0.2,Calm,Calm,-,N/A,Fog,Fog,0,2013-01-08 08:53:00
1:13 AM,35.6,35.6,100,30.31,0.5,Calm,Calm,-,N/A,Fog,Fog,0,2013-01-08 09:13:00
1:53 AM,36.0,35.1,97,30.39,0.5,Calm,Calm,-,N/A,Fog,Fog,0,2013-01-08 09:53:00
2:53 AM,36.0,35.1,97,30.39,0.5,Calm,Calm,-,N/A,Fog,Fog,0,2013-01-08 10:53:00
3:09 AM,35.6,35.6,100,30.31,0.2,Calm,Calm,-,N/A,Fog,Fog,0,2013-01-08 11:09:00
3:53 AM,36.0,35.1,97,30.37,0.2,Calm,Calm,-,N/A,Fog,Fog,0,2013-01-08 11:53:00
4:30 AM,35.6,35.6,100,30.30,0.2,Calm,Calm,-,N/A,Fog,Fog,0,2013-01-08 12:30:00
4:53 AM,36.0,35.1,97,30.37,0.2,Calm,Calm,-,N/A,Fog,Fog,0,2013-01-08 12:53:00
5:53 AM,36.0,35.1,97,30.37,0.2,Calm,Calm,-,N/A,Fog,Fog,0,2013-01-08 13:53:00
6:28 AM,35.6,35.6,100,30.30,0.5,Calm,Calm,-,N/A,Fog,Fog,0,2013-01-08 14:28:00
6:53 AM,36.0,35.1,97,30.38,0.5,Calm,Calm,-,N/A,Fog,Fog,0,2013-01-08 14:53:00
7:20 AM,35.6,35.6,100,30.30,2.0,Calm,Calm,-,N/A,,Overcast,0,2013-01-08 15:20:00
7:44 AM,35.6,35.6,100,30.30,2.5,Calm,Calm,-,N/A,,Overcast,0,2013-01-08 15:44:00
7:53 AM,36.0,36.0,100,30.38,4.0,Calm,Calm,-,N/A,,Overcast,0,2013-01-08 15:53:00
8:53 AM,36.0,34.0,93,30.41,4.0,Calm,Calm,-,N/A,,Overcast,0,2013-01-08 16:53:00
9:45 AM,35.6,33.8,93,30.34,6.0,Calm,Calm,-,N/A,,Overcast,0,2013-01-08 17:45:00
9:53 AM,36.0,35.1,97,30.41,4.0,Calm,Calm,-,N/A,,Overcast,0,2013-01-08 17:53:00
10:53 AM,37.0,35.1,93,30.41,7.0,Calm,Calm,-,N/A,,Overcast,0,2013-01-08 18:53:00
11:53 AM,37.0,34.0,89,30.38,10.0,North,4.6,-,N/A,,Overcast,350,2013-01-08 19:53:00
12:30 PM,37.4,35.6,93,30.30,10.0,Calm,Calm,-,N/A,,Overcast,0,2013-01-08 20:30:00
12:53 PM,37.0,35.1,93,30.37,10.0,Calm,Calm,-,N/A,,Overcast,0,2013-01-08 20:53:00
1:53 PM,37.0,35.1,93,30.35,10.0,South,3.5,-,N/A,,Overcast,190,2013-01-08 21:53:00
2:17 PM,37.4,35.6,93,30.27,8.0,SW,3.5,-,N/A,,Overcast,230,2013-01-08 22:17:00
2:53 PM,36.0,35.1,97,30.34,5.0,West,3.5,-,N/A,,Overcast,270,2013-01-08 22:53:00
3:53 PM,36.0,34.0,93,30.33,8.0,Calm,Calm,-,N/A,,Overcast,0,2013-01-08 23:53:00
4:38 PM,35.6,35.6,100,30.25,1.8,South,3.5,-,N/A,,Overcast,190,2013-01-09 00:38:00
4:53 PM,35.1,34.0,96,30.32,1.5,Calm,Calm,-,N/A,,Overcast,0,2013-01-09 00:53:00
5:36 PM,35.6,33.8,93,30.23,0.8,South,3.5,-,N/A,,Mist,190,2013-01-09 01:36:00
5:50 PM,35.6,33.8,93,30.23,1.0,SSW,3.5,-,N/A,,Mist,210,2013-01-09 01:50:00
5:53 PM,35.1,34.0,96,30.30,1.2,SSW,3.5,-,N/A,,Overcast,200,2013-01-09 01:53:00
6:32 PM,35.6,33.8,93,30.23,2.0,South,3.5,-,N/A,,Overcast,190,2013-01-09 02:32:00
6:50 PM,35.6,33.8,93,30.23,4.0,Calm,Calm,-,N/A,,Overcast,0,2013-01-09 02:50:00
6:53 PM,35.1,34.0,96,30.30,5.0,Calm,Calm,-,N/A,,Overcast,0,2013-01-09 02:53:00
7:53 PM,35.1,33.1,92,30.30,9.0,Calm,Calm,-,N/A,,Overcast,0,2013-01-09 03:53:00
9:53 PM,35.1,33.1,92,30.27,9.0,Calm,Calm,-,N/A,,Overcast,0,2013-01-09 05:53:00
10:38 PM,35.6,33.8,93,30.19,7.0,Calm,Calm,-,N/A,,Overcast,0,2013-01-09 06:38:00
10:53 PM,34.0,33.1,96,30.26,6.0,Calm,Calm,-,N/A,,Overcast,0,2013-01-09 06:53:00
11:53 PM,34.0,32.0,92,30.23,5.0,WSW,3.5,-,N/A,,Overcast,250,2013-01-09 07:53:00